sensor_id;sensor_type;location;lat;lon;timestamp;temperature;humidity
72865;DHT22;61000;48.120;11.548;2022-09-17T00:01:17;10.70;99.90
72865;DHT22;61000;48.120;11.548;2022-09-17T00:03:48;10.70;99.90
72865;DHT22;61000;48.120;11.548;2022-09-17T00:06:15;10.70;99.90
72865;DHT22;61000;48.120;11.548;2022-09-17T00:08:41;10.60;99.90
72865;DHT22;61000;48.120;11.548;2022-09-17T00:11:10;10.70;99.90
72865;DHT22;61000;48.120;11.548;2022-09-17T00:13:38;10.60;99.90
72865;DHT22;61000;48.120;11.548;2022-09-17T00:16:07;10.60;99.90
72865;DHT22;61000;48.120;11.548;2022-09-17T00:18:34;10.60;99.90
72865;DHT22;61000;48.120;11.548;2022-09-17T00:21:05;10.50;99.90
72865;DHT22;61000;48.120;11.548;2022-09-17T00:23:32;10.50;99.90
72865;DHT22;61000;48.120;11.548;2022-09-17T00:26:03;10.50;99.90
72865;DHT22;61000;48.120;11.548;2022-09-17T00:28:30;10.60;99.90
72865;DHT22;61000;48.120;11.548;2022-09-17T00:30:58;10.50;99.90
72865;DHT22;61000;48.120;11.548;2022-09-17T00:33:26;10.40;99.90
72865;DHT22;61000;48.120;11.548;2022-09-17T00:35:57;10.40;99.90
72865;DHT22;61000;48.120;11.548;2022-09-17T00:38:24;10.40;99.90
72865;DHT22;61000;48.120;11.548;2022-09-17T00:40:51;10.40;99.90
72865;DHT22;61000;48.120;11.548;2022-09-17T00:43:32;10.50;99.90
72865;DHT22;61000;48.120;11.548;2022-09-17T00:46:00;10.50;99.90
72865;DHT22;61000;48.120;11.548;2022-09-17T00:48:28;10.50;99.90
72865;DHT22;61000;48.120;11.548;2022-09-17T00:50:55;10.40;99.90
72865;DHT22;61000;48.120;11.548;2022-09-17T00:53:23;10.40;99.90
72865;DHT22;61000;48.120;11.548;2022-09-17T00:55:54;10.40;99.90
72865;DHT22;61000;48.120;11.548;2022-09-17T00:58:24;10.40;99.90
72865;DHT22;61000;48.120;11.548;2022-09-17T01:00:51;10.40;99.90
72865;DHT22;61000;48.120;11.548;2022-09-17T01:03:18;10.40;99.90
72865;DHT22;61000;48.120;11.548;2022-09-17T01:05:49;10.30;99.90
72865;DHT22;61000;48.120;11.548;2022-09-17T01:08:26;10.30;99.90
72865;DHT22;61000;48.120;11.548;2022-09-17T01:11:14;10.40;99.90
72865;DHT22;61000;48.120;11.548;2022-09-17T01:13:55;10.40;99.90
72865;DHT22;61000;48.120;11.548;2022-09-17T01:16:30;10.40;99.90
72865;DHT22;61000;48.120;11.548;2022-09-17T01:19:05;10.30;99.90
72865;DHT22;61000;48.120;11.548;2022-09-17T01:21:48;10.30;99.90
72865;DHT22;61000;48.120;11.548;2022-09-17T01:24:47;10.40;99.90
72865;DHT22;61000;48.120;11.548;2022-09-17T01:27:32;10.30;99.90
72865;DHT22;61000;48.120;11.548;2022-09-17T01:30:26;10.30;99.90
72865;DHT22;61000;48.120;11.548;2022-09-17T01:32:58;10.30;99.90
72865;DHT22;61000;48.120;11.548;2022-09-17T01:35:33;10.40;99.90
72865;DHT22;61000;48.120;11.548;2022-09-17T01:38:05;10.40;99.90
72865;DHT22;61000;48.120;11.548;2022-09-17T01:40:39;10.30;99.90
72865;DHT22;61000;48.120;11.548;2022-09-17T01:43:09;10.30;99.90
72865;DHT22;61000;48.120;11.548;2022-09-17T01:45:43;10.30;99.90
72865;DHT22;61000;48.120;11.548;2022-09-17T01:48:15;10.40;99.90
72865;DHT22;61000;48.120;11.548;2022-09-17T01:50:48;10.30;99.90
72865;DHT22;61000;48.120;11.548;2022-09-17T01:53:17;10.20;99.90
72865;DHT22;61000;48.120;11.548;2022-09-17T01:55:47;10.30;99.90
72865;DHT22;61000;48.120;11.548;2022-09-17T01:58:20;10.20;99.90
72865;DHT22;61000;48.120;11.548;2022-09-17T02:00:52;10.30;99.90
72865;DHT22;61000;48.120;11.548;2022-09-17T02:03:24;10.30;99.90
72865;DHT22;61000;48.120;11.548;2022-09-17T02:05:58;10.30;99.90
72865;DHT22;61000;48.120;11.548;2022-09-17T02:08:29;10.10;99.90
72865;DHT22;61000;48.120;11.548;2022-09-17T02:11:01;10.20;99.90
72865;DHT22;61000;48.120;11.548;2022-09-17T02:13:33;10.30;99.90
72865;DHT22;61000;48.120;11.548;2022-09-17T02:16:06;10.30;99.90
72865;DHT22;61000;48.120;11.548;2022-09-17T02:18:38;10.20;99.90
72865;DHT22;61000;48.120;11.548;2022-09-17T02:21:10;10.20;99.90
72865;DHT22;61000;48.120;11.548;2022-09-17T02:23:46;10.20;99.90
72865;DHT22;61000;48.120;11.548;2022-09-17T02:26:16;10.20;99.90
72865;DHT22;61000;48.120;11.548;2022-09-17T02:28:47;10.20;99.90
72865;DHT22;61000;48.120;11.548;2022-09-17T02:31:17;10.10;99.90
72865;DHT22;61000;48.120;11.548;2022-09-17T02:33:47;10.20;99.90
72865;DHT22;61000;48.120;11.548;2022-09-17T02:36:14;10.20;99.90
72865;DHT22;61000;48.120;11.548;2022-09-17T02:38:43;10.20;99.90
72865;DHT22;61000;48.120;11.548;2022-09-17T02:41:14;10.20;99.90
72865;DHT22;61000;48.120;11.548;2022-09-17T02:43:50;10.20;99.90
72865;DHT22;61000;48.120;11.548;2022-09-17T02:46:44;10.10;99.90
72865;DHT22;61000;48.120;11.548;2022-09-17T02:49:29;10.00;99.90
72865;DHT22;61000;48.120;11.548;2022-09-17T02:52:07;10.20;99.90
72865;DHT22;61000;48.120;11.548;2022-09-17T02:54:41;10.10;99.90
72865;DHT22;61000;48.120;11.548;2022-09-17T02:57:18;10.20;99.90
72865;DHT22;61000;48.120;11.548;2022-09-17T02:59:51;10.10;99.90
72865;DHT22;61000;48.120;11.548;2022-09-17T03:02:23;10.10;99.90
72865;DHT22;61000;48.120;11.548;2022-09-17T03:04:51;10.10;99.90
72865;DHT22;61000;48.120;11.548;2022-09-17T03:07:21;10.00;99.90
72865;DHT22;61000;48.120;11.548;2022-09-17T03:09:48;10.00;99.90
72865;DHT22;61000;48.120;11.548;2022-09-17T03:12:15;10.00;99.90
72865;DHT22;61000;48.120;11.548;2022-09-17T03:14:42;10.00;99.90
72865;DHT22;61000;48.120;11.548;2022-09-17T03:17:10;10.10;99.90
72865;DHT22;61000;48.120;11.548;2022-09-17T03:19:40;10.10;99.90
72865;DHT22;61000;48.120;11.548;2022-09-17T03:22:07;10.00;99.90
72865;DHT22;61000;48.120;11.548;2022-09-17T03:24:34;10.00;99.90
72865;DHT22;61000;48.120;11.548;2022-09-17T03:27:01;9.90;99.90
72865;DHT22;61000;48.120;11.548;2022-09-17T03:29:28;9.90;99.90
72865;DHT22;61000;48.120;11.548;2022-09-17T03:31:55;9.90;99.90
72865;DHT22;61000;48.120;11.548;2022-09-17T03:34:22;9.90;99.90
72865;DHT22;61000;48.120;11.548;2022-09-17T03:36:50;9.80;99.90
72865;DHT22;61000;48.120;11.548;2022-09-17T03:39:17;9.80;99.90
72865;DHT22;61000;48.120;11.548;2022-09-17T03:41:44;9.70;99.90
72865;DHT22;61000;48.120;11.548;2022-09-17T03:44:10;9.70;99.90
72865;DHT22;61000;48.120;11.548;2022-09-17T03:46:37;9.70;99.90
72865;DHT22;61000;48.120;11.548;2022-09-17T03:49:04;9.70;99.90
72865;DHT22;61000;48.120;11.548;2022-09-17T03:51:31;9.70;99.90
72865;DHT22;61000;48.120;11.548;2022-09-17T03:53:59;9.70;99.90
72865;DHT22;61000;48.120;11.548;2022-09-17T03:56:26;9.70;99.90
72865;DHT22;61000;48.120;11.548;2022-09-17T03:58:56;9.60;99.90
72865;DHT22;61000;48.120;11.548;2022-09-17T04:01:23;9.60;99.90
72865;DHT22;61000;48.120;11.548;2022-09-17T04:03:51;9.60;99.90
72865;DHT22;61000;48.120;11.548;2022-09-17T04:06:18;9.70;99.90
72865;DHT22;61000;48.120;11.548;2022-09-17T04:08:45;9.60;99.90
72865;DHT22;61000;48.120;11.548;2022-09-17T04:11:13;9.50;99.90
72865;DHT22;61000;48.120;11.548;2022-09-17T04:13:40;9.50;99.90
72865;DHT22;61000;48.120;11.548;2022-09-17T04:16:07;9.50;99.90
72865;DHT22;61000;48.120;11.548;2022-09-17T04:18:33;9.60;99.90
72865;DHT22;61000;48.120;11.548;2022-09-17T04:21:00;9.60;99.90
72865;DHT22;61000;48.120;11.548;2022-09-17T04:23:28;9.50;99.90
72865;DHT22;61000;48.120;11.548;2022-09-17T04:25:55;9.50;99.90
72865;DHT22;61000;48.120;11.548;2022-09-17T04:28:23;9.40;99.90
72865;DHT22;61000;48.120;11.548;2022-09-17T04:30:50;9.40;99.90
72865;DHT22;61000;48.120;11.548;2022-09-17T04:33:16;9.40;99.90
72865;DHT22;61000;48.120;11.548;2022-09-17T04:35:44;9.30;99.90
72865;DHT22;61000;48.120;11.548;2022-09-17T04:38:11;9.40;99.90
72865;DHT22;61000;48.120;11.548;2022-09-17T04:40:43;9.40;99.90
72865;DHT22;61000;48.120;11.548;2022-09-17T04:43:11;9.30;99.90
72865;DHT22;61000;48.120;11.548;2022-09-17T04:45:39;9.50;99.90
72865;DHT22;61000;48.120;11.548;2022-09-17T04:48:06;9.40;99.90
72865;DHT22;61000;48.120;11.548;2022-09-17T04:50:33;9.40;99.90
72865;DHT22;61000;48.120;11.548;2022-09-17T04:53:00;9.40;99.90
72865;DHT22;61000;48.120;11.548;2022-09-17T04:55:27;9.50;99.90
72865;DHT22;61000;48.120;11.548;2022-09-17T04:57:54;9.50;99.90
72865;DHT22;61000;48.120;11.548;2022-09-17T05:00:21;9.50;99.90
72865;DHT22;61000;48.120;11.548;2022-09-17T05:02:52;9.60;99.90
72865;DHT22;61000;48.120;11.548;2022-09-17T05:05:19;9.60;99.90
72865;DHT22;61000;48.120;11.548;2022-09-17T05:07:46;9.60;99.90
72865;DHT22;61000;48.120;11.548;2022-09-17T05:10:15;9.60;99.90
72865;DHT22;61000;48.120;11.548;2022-09-17T05:12:47;9.60;99.90
72865;DHT22;61000;48.120;11.548;2022-09-17T05:15:14;9.60;99.90
72865;DHT22;61000;48.120;11.548;2022-09-17T05:17:41;9.50;99.90
72865;DHT22;61000;48.120;11.548;2022-09-17T05:20:09;9.60;99.90
72865;DHT22;61000;48.120;11.548;2022-09-17T05:22:40;9.60;99.90
72865;DHT22;61000;48.120;11.548;2022-09-17T05:25:08;9.60;99.90
72865;DHT22;61000;48.120;11.548;2022-09-17T05:27:35;9.60;99.90
72865;DHT22;61000;48.120;11.548;2022-09-17T05:30:02;9.70;99.90
72865;DHT22;61000;48.120;11.548;2022-09-17T05:32:29;9.60;99.90
72865;DHT22;61000;48.120;11.548;2022-09-17T05:34:56;9.70;99.90
72865;DHT22;61000;48.120;11.548;2022-09-17T05:37:24;9.70;99.90
72865;DHT22;61000;48.120;11.548;2022-09-17T05:39:51;9.70;99.90
72865;DHT22;61000;48.120;11.548;2022-09-17T05:42:18;9.70;99.90
72865;DHT22;61000;48.120;11.548;2022-09-17T05:44:45;9.70;99.90
72865;DHT22;61000;48.120;11.548;2022-09-17T05:47:12;9.70;99.90
72865;DHT22;61000;48.120;11.548;2022-09-17T05:49:39;9.70;99.90
72865;DHT22;61000;48.120;11.548;2022-09-17T05:52:06;9.70;99.90
72865;DHT22;61000;48.120;11.548;2022-09-17T05:54:34;9.80;99.90
72865;DHT22;61000;48.120;11.548;2022-09-17T05:57:01;9.70;99.90
72865;DHT22;61000;48.120;11.548;2022-09-17T05:59:28;9.70;99.90
72865;DHT22;61000;48.120;11.548;2022-09-17T06:01:54;9.60;99.90
72865;DHT22;61000;48.120;11.548;2022-09-17T06:04:21;9.60;99.90
72865;DHT22;61000;48.120;11.548;2022-09-17T06:06:48;9.60;99.90
72865;DHT22;61000;48.120;11.548;2022-09-17T06:09:15;9.60;99.90
72865;DHT22;61000;48.120;11.548;2022-09-17T06:11:43;9.60;99.90
72865;DHT22;61000;48.120;11.548;2022-09-17T06:14:10;9.50;99.90
72865;DHT22;61000;48.120;11.548;2022-09-17T06:16:37;9.70;99.90
72865;DHT22;61000;48.120;11.548;2022-09-17T06:19:04;9.60;99.90
72865;DHT22;61000;48.120;11.548;2022-09-17T06:21:31;9.60;99.90
72865;DHT22;61000;48.120;11.548;2022-09-17T06:23:57;9.70;99.90
72865;DHT22;61000;48.120;11.548;2022-09-17T06:26:26;9.70;99.90
72865;DHT22;61000;48.120;11.548;2022-09-17T06:28:54;9.70;99.90
72865;DHT22;61000;48.120;11.548;2022-09-17T06:31:21;9.70;99.90
72865;DHT22;61000;48.120;11.548;2022-09-17T06:33:47;9.70;99.90
72865;DHT22;61000;48.120;11.548;2022-09-17T06:36:15;9.70;99.90
72865;DHT22;61000;48.120;11.548;2022-09-17T06:38:42;9.70;99.90
72865;DHT22;61000;48.120;11.548;2022-09-17T06:41:09;9.70;99.90
72865;DHT22;61000;48.120;11.548;2022-09-17T06:43:36;9.70;99.90
72865;DHT22;61000;48.120;11.548;2022-09-17T06:46:05;9.70;99.90
72865;DHT22;61000;48.120;11.548;2022-09-17T06:48:34;9.70;99.90
72865;DHT22;61000;48.120;11.548;2022-09-17T06:51:03;9.80;99.90
72865;DHT22;61000;48.120;11.548;2022-09-17T06:53:31;9.80;99.90
72865;DHT22;61000;48.120;11.548;2022-09-17T06:55:58;9.70;99.90
72865;DHT22;61000;48.120;11.548;2022-09-17T06:58:25;9.80;99.90
72865;DHT22;61000;48.120;11.548;2022-09-17T07:00:57;9.80;99.90
72865;DHT22;61000;48.120;11.548;2022-09-17T07:03:25;9.70;99.90
72865;DHT22;61000;48.120;11.548;2022-09-17T07:05:52;9.70;99.90
72865;DHT22;61000;48.120;11.548;2022-09-17T07:08:19;9.80;99.90
72865;DHT22;61000;48.120;11.548;2022-09-17T07:10:47;9.70;99.90
72865;DHT22;61000;48.120;11.548;2022-09-17T07:13:14;9.70;99.90
72865;DHT22;61000;48.120;11.548;2022-09-17T07:15:41;9.80;99.90
72865;DHT22;61000;48.120;11.548;2022-09-17T07:18:08;9.80;99.90
72865;DHT22;61000;48.120;11.548;2022-09-17T07:20:37;9.70;99.90
72865;DHT22;61000;48.120;11.548;2022-09-17T07:23:04;9.90;99.90
72865;DHT22;61000;48.120;11.548;2022-09-17T07:25:31;10.00;99.90
72865;DHT22;61000;48.120;11.548;2022-09-17T07:27:58;10.10;99.90
72865;DHT22;61000;48.120;11.548;2022-09-17T07:30:25;10.10;99.90
72865;DHT22;61000;48.120;11.548;2022-09-17T07:32:52;10.10;99.90
72865;DHT22;61000;48.120;11.548;2022-09-17T07:35:19;10.10;99.90
72865;DHT22;61000;48.120;11.548;2022-09-17T07:37:47;10.20;99.90
72865;DHT22;61000;48.120;11.548;2022-09-17T07:40:14;10.30;99.90
72865;DHT22;61000;48.120;11.548;2022-09-17T07:42:40;10.30;98.00
72865;DHT22;61000;48.120;11.548;2022-09-17T07:45:08;10.30;96.70
72865;DHT22;61000;48.120;11.548;2022-09-17T07:47:38;10.40;97.00
72865;DHT22;61000;48.120;11.548;2022-09-17T07:50:07;10.40;97.00
72865;DHT22;61000;48.120;11.548;2022-09-17T07:52:34;10.50;96.90
72865;DHT22;61000;48.120;11.548;2022-09-17T07:55:02;10.60;97.00
72865;DHT22;61000;48.120;11.548;2022-09-17T07:57:29;10.70;96.20
72865;DHT22;61000;48.120;11.548;2022-09-17T07:59:56;10.60;95.90
72865;DHT22;61000;48.120;11.548;2022-09-17T08:02:22;10.60;95.50
72865;DHT22;61000;48.120;11.548;2022-09-17T08:04:49;10.40;95.40
72865;DHT22;61000;48.120;11.548;2022-09-17T08:07:16;10.50;95.80
72865;DHT22;61000;48.120;11.548;2022-09-17T08:09:43;10.50;96.00
72865;DHT22;61000;48.120;11.548;2022-09-17T08:12:11;10.60;96.10
72865;DHT22;61000;48.120;11.548;2022-09-17T08:14:38;10.50;95.30
72865;DHT22;61000;48.120;11.548;2022-09-17T08:17:06;10.50;95.40
72865;DHT22;61000;48.120;11.548;2022-09-17T08:19:33;10.50;95.60
72865;DHT22;61000;48.120;11.548;2022-09-17T08:22:00;10.70;95.50
72865;DHT22;61000;48.120;11.548;2022-09-17T08:24:27;10.70;95.20
72865;DHT22;61000;48.120;11.548;2022-09-17T08:26:54;10.70;95.10
72865;DHT22;61000;48.120;11.548;2022-09-17T08:29:22;10.50;94.40
72865;DHT22;61000;48.120;11.548;2022-09-17T08:31:49;10.50;95.00
72865;DHT22;61000;48.120;11.548;2022-09-17T08:34:16;10.50;94.90
72865;DHT22;61000;48.120;11.548;2022-09-17T08:36:43;10.60;95.00
72865;DHT22;61000;48.120;11.548;2022-09-17T08:39:09;10.80;94.60
72865;DHT22;61000;48.120;11.548;2022-09-17T08:41:47;10.90;94.20
72865;DHT22;61000;48.120;11.548;2022-09-17T08:44:22;11.00;94.00
72865;DHT22;61000;48.120;11.548;2022-09-17T08:46:51;11.00;94.10
72865;DHT22;61000;48.120;11.548;2022-09-17T08:49:28;11.00;93.60
72865;DHT22;61000;48.120;11.548;2022-09-17T08:52:17;11.00;93.70
72865;DHT22;61000;48.120;11.548;2022-09-17T08:54:51;11.00;93.50
72865;DHT22;61000;48.120;11.548;2022-09-17T08:57:24;11.00;93.70
72865;DHT22;61000;48.120;11.548;2022-09-17T08:59:59;10.90;93.60
72865;DHT22;61000;48.120;11.548;2022-09-17T09:02:42;10.90;93.60
72865;DHT22;61000;48.120;11.548;2022-09-17T09:05:16;10.90;93.70
72865;DHT22;61000;48.120;11.548;2022-09-17T09:07:47;10.80;93.60
72865;DHT22;61000;48.120;11.548;2022-09-17T09:10:19;10.80;93.40
72865;DHT22;61000;48.120;11.548;2022-09-17T09:12:48;10.70;92.90
72865;DHT22;61000;48.120;11.548;2022-09-17T09:15:26;10.70;92.70
72865;DHT22;61000;48.120;11.548;2022-09-17T09:17:56;10.80;92.70
72865;DHT22;61000;48.120;11.548;2022-09-17T09:20:29;10.90;92.20
72865;DHT22;61000;48.120;11.548;2022-09-17T09:23:00;10.90;92.20
72865;DHT22;61000;48.120;11.548;2022-09-17T09:25:33;10.90;92.10
72865;DHT22;61000;48.120;11.548;2022-09-17T09:28:13;10.90;92.40
72865;DHT22;61000;48.120;11.548;2022-09-17T09:30:54;11.00;93.00
72865;DHT22;61000;48.120;11.548;2022-09-17T09:33:28;11.00;93.30
72865;DHT22;61000;48.120;11.548;2022-09-17T09:35:56;11.10;93.50
72865;DHT22;61000;48.120;11.548;2022-09-17T09:38:30;11.00;94.00
72865;DHT22;61000;48.120;11.548;2022-09-17T09:41:04;10.80;94.00
72865;DHT22;61000;48.120;11.548;2022-09-17T09:43:38;10.80;94.10
72865;DHT22;61000;48.120;11.548;2022-09-17T09:46:30;10.70;93.90
72865;DHT22;61000;48.120;11.548;2022-09-17T09:49:08;10.70;93.70
72865;DHT22;61000;48.120;11.548;2022-09-17T09:51:47;10.80;94.00
72865;DHT22;61000;48.120;11.548;2022-09-17T09:54:43;10.90;93.70
72865;DHT22;61000;48.120;11.548;2022-09-17T09:57:15;10.90;93.30
72865;DHT22;61000;48.120;11.548;2022-09-17T09:59:43;10.90;93.60
72865;DHT22;61000;48.120;11.548;2022-09-17T10:02:11;10.90;94.20
72865;DHT22;61000;48.120;11.548;2022-09-17T10:04:38;10.90;95.00
72865;DHT22;61000;48.120;11.548;2022-09-17T10:07:06;10.80;95.60
72865;DHT22;61000;48.120;11.548;2022-09-17T10:09:34;10.70;95.20
72865;DHT22;61000;48.120;11.548;2022-09-17T10:12:04;10.60;96.20
72865;DHT22;61000;48.120;11.548;2022-09-17T10:14:33;10.50;98.10
72865;DHT22;61000;48.120;11.548;2022-09-17T10:17:17;10.40;99.40
72865;DHT22;61000;48.120;11.548;2022-09-17T10:19:47;10.30;99.90
72865;DHT22;61000;48.120;11.548;2022-09-17T10:22:36;10.00;98.10
72865;DHT22;61000;48.120;11.548;2022-09-17T10:25:11;10.00;99.90
72865;DHT22;61000;48.120;11.548;2022-09-17T10:27:44;9.80;99.90
72865;DHT22;61000;48.120;11.548;2022-09-17T10:30:14;9.80;99.90
72865;DHT22;61000;48.120;11.548;2022-09-17T10:32:43;9.60;99.90
72865;DHT22;61000;48.120;11.548;2022-09-17T10:35:24;9.60;99.90
72865;DHT22;61000;48.120;11.548;2022-09-17T10:37:53;9.40;99.90
72865;DHT22;61000;48.120;11.548;2022-09-17T10:40:28;9.40;99.90
72865;DHT22;61000;48.120;11.548;2022-09-17T10:43:16;9.40;99.90
72865;DHT22;61000;48.120;11.548;2022-09-17T10:45:44;9.50;99.90
72865;DHT22;61000;48.120;11.548;2022-09-17T10:48:20;9.60;99.90
72865;DHT22;61000;48.120;11.548;2022-09-17T10:50:48;9.50;99.90
72865;DHT22;61000;48.120;11.548;2022-09-17T10:53:17;9.60;99.90
72865;DHT22;61000;48.120;11.548;2022-09-17T10:55:49;9.60;99.90
72865;DHT22;61000;48.120;11.548;2022-09-17T10:58:26;9.70;99.90
72865;DHT22;61000;48.120;11.548;2022-09-17T11:01:04;9.70;99.90
72865;DHT22;61000;48.120;11.548;2022-09-17T11:03:55;9.70;99.90
72865;DHT22;61000;48.120;11.548;2022-09-17T11:06:37;9.60;99.90
72865;DHT22;61000;48.120;11.548;2022-09-17T11:09:18;9.70;99.90
72865;DHT22;61000;48.120;11.548;2022-09-17T11:11:59;9.80;99.90
72865;DHT22;61000;48.120;11.548;2022-09-17T11:14:43;10.00;99.90
72865;DHT22;61000;48.120;11.548;2022-09-17T11:17:34;9.90;99.90
72865;DHT22;61000;48.120;11.548;2022-09-17T11:20:18;9.80;99.90
72865;DHT22;61000;48.120;11.548;2022-09-17T11:22:54;9.80;99.90
72865;DHT22;61000;48.120;11.548;2022-09-17T11:25:35;9.80;99.90
72865;DHT22;61000;48.120;11.548;2022-09-17T11:28:21;9.90;99.90
72865;DHT22;61000;48.120;11.548;2022-09-17T11:31:07;9.90;99.90
72865;DHT22;61000;48.120;11.548;2022-09-17T11:36:35;10.20;99.90
72865;DHT22;61000;48.120;11.548;2022-09-17T11:39:09;10.40;99.90
72865;DHT22;61000;48.120;11.548;2022-09-17T11:41:41;10.50;99.90
72865;DHT22;61000;48.120;11.548;2022-09-17T11:44:13;10.30;99.90
72865;DHT22;61000;48.120;11.548;2022-09-17T11:46:45;10.30;99.90
72865;DHT22;61000;48.120;11.548;2022-09-17T11:49:22;10.30;99.90
72865;DHT22;61000;48.120;11.548;2022-09-17T11:51:55;10.40;99.90
72865;DHT22;61000;48.120;11.548;2022-09-17T11:54:28;10.50;99.90
72865;DHT22;61000;48.120;11.548;2022-09-17T11:57:05;10.50;99.90
72865;DHT22;61000;48.120;11.548;2022-09-17T11:59:37;10.60;99.90
72865;DHT22;61000;48.120;11.548;2022-09-17T12:02:18;10.70;99.90
72865;DHT22;61000;48.120;11.548;2022-09-17T12:04:53;10.60;99.90
72865;DHT22;61000;48.120;11.548;2022-09-17T12:07:34;10.70;99.90
72865;DHT22;61000;48.120;11.548;2022-09-17T12:10:16;10.90;99.90
72865;DHT22;61000;48.120;11.548;2022-09-17T12:12:49;11.30;99.30
72865;DHT22;61000;48.120;11.548;2022-09-17T12:15:21;11.60;97.50
72865;DHT22;61000;48.120;11.548;2022-09-17T12:17:53;11.60;97.90
72865;DHT22;61000;48.120;11.548;2022-09-17T12:20:26;11.70;98.30
72865;DHT22;61000;48.120;11.548;2022-09-17T12:22:57;11.70;98.00
72865;DHT22;61000;48.120;11.548;2022-09-17T12:25:31;11.70;97.50
72865;DHT22;61000;48.120;11.548;2022-09-17T12:28:03;11.60;96.70
72865;DHT22;61000;48.120;11.548;2022-09-17T12:30:35;11.40;96.50
72865;DHT22;61000;48.120;11.548;2022-09-17T12:33:18;11.40;97.10
72865;DHT22;61000;48.120;11.548;2022-09-17T12:38:58;10.90;96.10
72865;DHT22;61000;48.120;11.548;2022-09-17T12:41:35;10.90;96.90
72865;DHT22;61000;48.120;11.548;2022-09-17T12:44:18;10.70;97.10
72865;DHT22;61000;48.120;11.548;2022-09-17T12:46:55;10.60;98.30
72865;DHT22;61000;48.120;11.548;2022-09-17T12:49:45;10.60;98.50
72865;DHT22;61000;48.120;11.548;2022-09-17T12:52:19;10.70;98.70
72865;DHT22;61000;48.120;11.548;2022-09-17T12:55:29;10.70;98.90
72865;DHT22;61000;48.120;11.548;2022-09-17T12:58:04;11.00;98.60
72865;DHT22;61000;48.120;11.548;2022-09-17T13:00:36;11.60;97.90
72865;DHT22;61000;48.120;11.548;2022-09-17T13:03:11;11.80;97.40
72865;DHT22;61000;48.120;11.548;2022-09-17T13:17:59;11.10;97.10
72865;DHT22;61000;48.120;11.548;2022-09-17T13:20:33;10.80;96.80
72865;DHT22;61000;48.120;11.548;2022-09-17T13:23:04;10.70;98.30
72865;DHT22;61000;48.120;11.548;2022-09-17T13:25:31;10.60;98.50
72865;DHT22;61000;48.120;11.548;2022-09-17T13:28:07;10.50;99.90
72865;DHT22;61000;48.120;11.548;2022-09-17T13:30:56;10.30;99.20
72865;DHT22;61000;48.120;11.548;2022-09-17T13:33:55;10.30;99.40
72865;DHT22;61000;48.120;11.548;2022-09-17T13:36:35;10.40;99.90
72865;DHT22;61000;48.120;11.548;2022-09-17T13:39:05;10.50;99.90
72865;DHT22;61000;48.120;11.548;2022-09-17T13:41:35;10.50;99.90
72865;DHT22;61000;48.120;11.548;2022-09-17T13:44:03;10.40;99.90
72865;DHT22;61000;48.120;11.548;2022-09-17T13:46:33;10.20;99.90
72865;DHT22;61000;48.120;11.548;2022-09-17T13:49:02;10.00;99.90
72865;DHT22;61000;48.120;11.548;2022-09-17T13:51:57;9.90;99.90
72865;DHT22;61000;48.120;11.548;2022-09-17T13:54:37;9.90;99.90
72865;DHT22;61000;48.120;11.548;2022-09-17T13:57:11;10.10;99.90
72865;DHT22;61000;48.120;11.548;2022-09-17T13:59:52;10.20;99.90
72865;DHT22;61000;48.120;11.548;2022-09-17T14:02:36;10.40;99.90
72865;DHT22;61000;48.120;11.548;2022-09-17T14:05:31;10.60;99.90
72865;DHT22;61000;48.120;11.548;2022-09-17T14:08:23;10.90;99.90
72865;DHT22;61000;48.120;11.548;2022-09-17T14:10:54;11.30;99.90
72865;DHT22;61000;48.120;11.548;2022-09-17T14:13:43;11.50;99.90
72865;DHT22;61000;48.120;11.548;2022-09-17T14:16:32;11.50;99.90
72865;DHT22;61000;48.120;11.548;2022-09-17T14:19:16;11.60;99.90
72865;DHT22;61000;48.120;11.548;2022-09-17T14:22:07;11.60;98.70
72865;DHT22;61000;48.120;11.548;2022-09-17T14:24:37;11.70;98.10
72865;DHT22;61000;48.120;11.548;2022-09-17T14:27:20;12.00;97.30
72865;DHT22;61000;48.120;11.548;2022-09-17T14:30:04;12.10;98.00
72865;DHT22;61000;48.120;11.548;2022-09-17T14:32:38;12.00;97.60
72865;DHT22;61000;48.120;11.548;2022-09-17T14:35:18;11.90;96.70
72865;DHT22;61000;48.120;11.548;2022-09-17T14:37:53;11.70;96.60
72865;DHT22;61000;48.120;11.548;2022-09-17T14:40:22;11.60;96.70
72865;DHT22;61000;48.120;11.548;2022-09-17T14:42:52;11.50;97.00
72865;DHT22;61000;48.120;11.548;2022-09-17T14:45:25;11.40;97.10
72865;DHT22;61000;48.120;11.548;2022-09-17T14:51:24;11.20;98.10
72865;DHT22;61000;48.120;11.548;2022-09-17T14:54:23;11.30;98.50
72865;DHT22;61000;48.120;11.548;2022-09-17T14:56:59;11.30;97.60
72865;DHT22;61000;48.120;11.548;2022-09-17T14:59:45;11.20;97.60
72865;DHT22;61000;48.120;11.548;2022-09-17T15:02:33;11.10;98.30
72865;DHT22;61000;48.120;11.548;2022-09-17T15:05:01;11.00;97.40
72865;DHT22;61000;48.120;11.548;2022-09-17T15:07:42;10.80;96.30
72865;DHT22;61000;48.120;11.548;2022-09-17T15:10:13;10.60;95.90
72865;DHT22;61000;48.120;11.548;2022-09-17T15:12:41;10.50;95.90
72865;DHT22;61000;48.120;11.548;2022-09-17T15:15:16;10.40;96.40
72865;DHT22;61000;48.120;11.548;2022-09-17T15:17:43;10.40;96.90
72865;DHT22;61000;48.120;11.548;2022-09-17T15:20:15;10.40;97.30
72865;DHT22;61000;48.120;11.548;2022-09-17T15:22:50;10.40;97.60
72865;DHT22;61000;48.120;11.548;2022-09-17T15:25:21;10.40;97.10
72865;DHT22;61000;48.120;11.548;2022-09-17T15:27:51;10.30;97.10
72865;DHT22;61000;48.120;11.548;2022-09-17T15:30:21;10.30;97.40
72865;DHT22;61000;48.120;11.548;2022-09-17T15:32:50;10.20;97.10
72865;DHT22;61000;48.120;11.548;2022-09-17T15:35:23;10.10;97.20
72865;DHT22;61000;48.120;11.548;2022-09-17T15:37:55;10.00;97.00
72865;DHT22;61000;48.120;11.548;2022-09-17T15:40:26;10.00;97.30
72865;DHT22;61000;48.120;11.548;2022-09-17T15:43:00;10.00;97.30
72865;DHT22;61000;48.120;11.548;2022-09-17T15:45:29;9.90;97.00
72865;DHT22;61000;48.120;11.548;2022-09-17T15:47:58;9.90;96.90
72865;DHT22;61000;48.120;11.548;2022-09-17T15:50:27;9.90;97.00
72865;DHT22;61000;48.120;11.548;2022-09-17T15:53:11;9.90;97.00
72865;DHT22;61000;48.120;11.548;2022-09-17T15:55:40;9.80;97.20
72865;DHT22;61000;48.120;11.548;2022-09-17T15:58:23;9.90;97.30
72865;DHT22;61000;48.120;11.548;2022-09-17T16:04:16;9.90;97.30
72865;DHT22;61000;48.120;11.548;2022-09-17T16:06:48;10.00;96.90
72865;DHT22;61000;48.120;11.548;2022-09-17T16:09:38;10.00;96.80
72865;DHT22;61000;48.120;11.548;2022-09-17T16:12:05;9.90;96.50
72865;DHT22;61000;48.120;11.548;2022-09-17T16:14:32;10.00;96.50
72865;DHT22;61000;48.120;11.548;2022-09-17T16:17:07;9.90;96.50